Time;durP1;ratioP1;P1;durP2;ratioP2;P2;SDS_P1;SDS_P2;PMS_P1;PMS_P2;Temp;Humidity;BMP_temperature;BMP_pressure;BME280_temperature;BME280_humidity;BME280_pressure;Samples;Min_cycle;Max_cycle;Signal;HPM_P1;HPM_P2
2022/01/04 00:01:03;;;;;;;34.47;7.60;;;8.70;99.90;;;;;;6211503;23;20184;-84
2022/01/04 00:03:31;;;;;;;43.20;8.10;;;8.80;99.90;;;;;;6210819;23;20190;-84
2022/01/04 00:05:58;;;;;;;38.13;7.40;;;8.80;99.90;;;;;;6212442;23;20170;-83
2022/01/04 00:08:26;;;;;;;39.47;5.90;;;8.80;99.90;;;;;;6213172;23;20174;-84
2022/01/04 00:11:05;;;;;;;41.40;8.47;;;8.80;99.90;;;;;;6214029;23;20567;-84
2022/01/04 00:13:32;;;;;;;30.23;7.30;;;8.80;99.90;;;;;;6213385;23;20204;-84
2022/01/04 00:15:59;;;;;;;42.40;7.03;;;8.80;99.90;;;;;;6213457;23;20180;-83
2022/01/04 00:18:27;;;;;;;30.63;6.03;;;8.90;99.90;;;;;;6212392;23;20166;-84
2022/01/04 00:20:55;;;;;;;32.43;8.73;;;8.90;99.90;;;;;;6208689;23;20181;-84
2022/01/04 00:23:23;;;;;;;37.40;6.47;;;8.90;99.90;;;;;;6212573;23;20303;-83
2022/01/04 00:25:49;;;;;;;31.37;5.97;;;8.90;99.90;;;;;;6213131;23;20178;-85
2022/01/04 00:28:17;;;;;;;29.07;6.57;;;8.90;99.90;;;;;;6213077;23;20174;-85
2022/01/04 00:30:44;;;;;;;32.17;5.30;;;8.90;99.90;;;;;;6212936;23;20177;-84
2022/01/04 00:33:13;;;;;;;35.90;7.27;;;8.90;99.90;;;;;;6212824;23;20192;-83
2022/01/04 00:35:41;;;;;;;40.43;6.00;;;8.90;99.90;;;;;;6212292;23;20163;-81
2022/01/04 00:38:09;;;;;;;35.23;5.23;;;8.90;99.90;;;;;;6213337;23;20166;-83
2022/01/04 00:40:36;;;;;;;33.30;4.90;;;8.90;99.90;;;;;;6212254;23;20277;-84
2022/01/04 00:43:04;;;;;;;33.60;5.73;;;8.90;99.90;;;;;;6212613;23;20177;-82
2022/01/04 00:45:32;;;;;;;48.77;6.50;;;8.90;99.90;;;;;;6212805;23;20182;-84
2022/01/04 00:50:44;;;;;;;27.90;5.90;;;9.00;99.90;;;;;;6211932;23;20161;-82
2022/01/04 00:53:13;;;;;;;30.63;6.43;;;9.00;99.90;;;;;;6213162;23;20174;-84
2022/01/04 00:55:40;;;;;;;39.73;5.57;;;9.00;99.90;;;;;;6212206;23;20175;-82
2022/01/04 00:58:07;;;;;;;32.30;6.50;;;9.00;99.90;;;;;;6211913;23;20193;-83
2022/01/04 01:00:34;;;;;;;31.20;6.43;;;9.00;99.90;;;;;;6212347;23;20441;-84
2022/01/04 01:03:01;;;;;;;33.87;6.60;;;9.00;99.90;;;;;;6213061;23;20190;-85
2022/01/04 01:05:28;;;;;;;41.57;6.77;;;9.00;99.90;;;;;;6212841;23;20806;-84
2022/01/04 01:07:55;;;;;;;39.50;6.83;;;9.00;99.90;;;;;;6213041;23;20173;-84
2022/01/04 01:10:43;;;;;;;34.77;7.10;;;9.00;99.90;;;;;;6212351;23;20574;-84
2022/01/04 01:13:12;;;;;;;23.97;6.70;;;9.00;99.90;;;;;;6212933;23;20164;-86
2022/01/04 01:15:40;;;;;;;26.27;6.53;;;9.00;99.90;;;;;;6213558;23;20181;-84
2022/01/04 01:18:08;;;;;;;36.87;10.03;;;9.00;99.90;;;;;;6212454;23;20185;-83
2022/01/04 01:20:34;;;;;;;34.13;9.63;;;9.00;99.90;;;;;;6212445;23;20224;-84
2022/01/04 01:23:01;;;;;;;36.70;8.83;;;9.00;99.90;;;;;;6212483;23;20205;-85
2022/01/04 01:25:30;;;;;;;29.97;8.80;;;9.00;99.90;;;;;;6212039;23;20174;-85
2022/01/04 01:27:56;;;;;;;30.57;8.13;;;9.10;99.90;;;;;;6213563;23;20185;-84
2022/01/04 01:30:25;;;;;;;27.07;8.17;;;9.10;99.90;;;;;;6213458;23;20177;-83
2022/01/04 01:32:52;;;;;;;38.60;9.10;;;9.00;99.90;;;;;;6211898;23;20237;-84
2022/01/04 01:35:19;;;;;;;39.07;9.70;;;9.00;99.90;;;;;;6211919;23;20170;-84
2022/01/04 01:37:46;;;;;;;33.93;10.23;;;9.00;99.90;;;;;;6212012;23;20170;-85
2022/01/04 01:40:13;;;;;;;27.23;8.57;;;9.00;99.90;;;;;;6211204;23;20198;-85
2022/01/04 01:42:42;;;;;;;28.90;8.83;;;9.00;99.90;;;;;;6199906;23;20181;-83
2022/01/04 01:45:11;;;;;;;31.10;10.40;;;9.00;99.90;;;;;;6212047;23;20181;-84
2022/01/04 01:47:41;;;;;;;30.73;9.37;;;9.00;99.90;;;;;;6210987;23;20201;-85
2022/01/04 01:50:09;;;;;;;29.77;9.07;;;9.00;99.90;;;;;;6211765;23;20166;-84
2022/01/04 01:52:36;;;;;;;32.33;9.43;;;9.00;99.90;;;;;;6207603;23;20181;-85
2022/01/04 01:55:03;;;;;;;24.60;8.67;;;9.00;99.90;;;;;;6211829;23;20181;-85
2022/01/04 01:57:30;;;;;;;33.30;9.40;;;9.00;99.90;;;;;;6212005;23;20196;-83
2022/01/04 01:59:59;;;;;;;31.97;10.67;;;9.00;99.90;;;;;;6211902;23;20444;-83
2022/01/04 02:02:26;;;;;;;37.03;9.57;;;9.00;99.90;;;;;;6211380;23;20201;-84
2022/01/04 02:04:52;;;;;;;28.10;9.70;;;9.00;99.90;;;;;;6211584;23;20201;-83
2022/01/04 02:07:21;;;;;;;34.23;9.77;;;9.10;99.90;;;;;;6211824;23;20173;-84
2022/01/04 02:09:58;;;;;;;36.73;11.53;;;9.10;99.90;;;;;;6212025;23;20776;-85
2022/01/04 02:12:25;;;;;;;48.87;11.07;;;9.10;99.90;;;;;;6211147;23;20169;-85
2022/01/04 02:14:52;;;;;;;33.83;11.20;;;9.10;99.90;;;;;;6211198;23;20170;-85
2022/01/04 02:17:21;;;;;;;31.63;10.77;;;9.10;99.90;;;;;;6211634;23;20181;-83
2022/01/04 02:19:49;;;;;;;41.60;11.67;;;9.10;99.90;;;;;;6211308;23;20198;-85
2022/01/04 02:22:16;;;;;;;38.73;9.97;;;9.10;99.90;;;;;;6210925;23;20641;-84
2022/01/04 02:24:43;;;;;;;35.57;11.30;;;9.10;99.90;;;;;;6185936;23;20178;-83
2022/01/04 02:27:10;;;;;;;27.53;9.90;;;9.10;99.90;;;;;;6211601;23;20174;-84
2022/01/04 02:29:37;;;;;;;28.27;9.13;;;9.10;99.90;;;;;;6210860;23;20173;-83
2022/01/04 02:32:05;;;;;;;34.27;9.23;;;9.10;99.90;;;;;;6212549;23;20178;-84
2022/01/04 02:34:32;;;;;;;28.00;8.90;;;9.10;99.90;;;;;;6211253;23;20183;-83
2022/01/04 02:37:00;;;;;;;34.73;8.97;;;9.10;99.90;;;;;;6211563;23;20197;-85
2022/01/04 02:39:27;;;;;;;28.83;8.13;;;9.00;99.90;;;;;;6211785;23;20190;-84
2022/01/04 02:41:54;;;;;;;29.67;6.20;;;9.10;99.90;;;;;;6211553;23;20166;-85
2022/01/04 02:44:21;;;;;;;26.23;7.17;;;9.10;99.90;;;;;;6211029;23;20183;-84
2022/01/04 02:46:48;;;;;;;27.07;7.80;;;9.10;99.90;;;;;;6212251;23;20615;-83
2022/01/04 02:49:14;;;;;;;28.40;7.60;;;9.10;99.90;;;;;;6211626;23;20181;-84
2022/01/04 02:51:42;;;;;;;27.10;7.43;;;9.10;99.90;;;;;;6211520;23;20449;-84
2022/01/04 02:54:10;;;;;;;28.20;7.47;;;9.00;99.90;;;;;;6211113;23;20443;-83
2022/01/04 02:56:36;;;;;;;30.00;6.93;;;9.10;99.90;;;;;;6210264;23;20338;-84
2022/01/04 02:59:04;;;;;;;32.10;6.70;;;9.10;99.90;;;;;;6211211;23;20174;-82
2022/01/04 03:01:31;;;;;;;21.10;5.33;;;9.10;99.90;;;;;;6210800;23;20166;-84
2022/01/04 03:03:58;;;;;;;28.53;6.77;;;9.10;99.90;;;;;;6210731;23;20201;-82
2022/01/04 03:06:25;;;;;;;31.40;6.50;;;9.10;99.90;;;;;;6210511;23;20628;-81
2022/01/04 03:08:52;;;;;;;25.07;7.67;;;9.10;99.90;;;;;;6210816;23;20174;-82
2022/01/04 03:11:20;;;;;;;35.23;8.30;;;9.00;99.90;;;;;;6211325;23;20178;-82
2022/01/04 03:13:47;;;;;;;31.67;7.47;;;9.10;99.90;;;;;;6211142;23;20177;-82
2022/01/04 03:16:14;;;;;;;37.17;10.07;;;9.10;99.90;;;;;;6210958;23;20170;-83
2022/01/04 03:19:01;;;;;;;29.20;7.03;;;9.10;99.90;;;;;;6211440;23;20395;-83
2022/01/04 03:21:27;;;;;;;25.50;7.43;;;9.10;99.90;;;;;;6210077;23;20198;-82
2022/01/04 03:23:54;;;;;;;27.13;7.83;;;9.00;99.90;;;;;;6207937;23;20206;-84
2022/01/04 03:26:23;;;;;;;28.80;8.27;;;9.00;99.90;;;;;;6208286;23;20177;-82
2022/01/04 03:28:50;;;;;;;25.50;6.80;;;9.00;99.90;;;;;;6212058;23;20189;-84
2022/01/04 03:31:16;;;;;;;28.80;6.03;;;9.00;99.90;;;;;;6211419;23;20578;-84
2022/01/04 03:33:43;;;;;;;24.97;5.80;;;9.00;99.90;;;;;;6210510;23;20169;-84
2022/01/04 03:36:10;;;;;;;33.97;7.40;;;9.00;99.90;;;;;;6212334;23;20174;-83
2022/01/04 03:38:37;;;;;;;24.20;7.33;;;9.00;99.90;;;;;;6211664;23;20165;-84
2022/01/04 03:41:07;;;;;;;26.40;6.63;;;9.00;99.90;;;;;;6211469;23;20209;-82
2022/01/04 03:43:37;;;;;;;21.93;5.73;;;9.00;99.90;;;;;;6210784;23;20170;-84
2022/01/04 03:46:05;;;;;;;21.07;5.93;;;9.00;99.90;;;;;;6211665;23;20228;-84
2022/01/04 03:48:32;;;;;;;29.90;7.67;;;9.00;99.90;;;;;;6211852;23;20190;-84
2022/01/04 03:50:59;;;;;;;24.40;6.93;;;9.00;99.90;;;;;;6211928;23;20173;-84
2022/01/04 03:53:26;;;;;;;35.23;8.20;;;9.00;99.90;;;;;;6211459;23;20566;-84
2022/01/04 03:55:53;;;;;;;28.57;6.80;;;9.00;99.90;;;;;;6211565;23;20174;-82
2022/01/04 03:58:19;;;;;;;34.17;7.57;;;9.00;99.90;;;;;;6210865;23;20177;-84
2022/01/04 04:00:48;;;;;;;25.40;7.70;;;9.00;99.90;;;;;;6210539;23;20190;-84
2022/01/04 04:03:14;;;;;;;27.93;7.00;;;9.00;99.90;;;;;;6211048;23;20790;-84
2022/01/04 04:05:42;;;;;;;22.90;6.70;;;9.00;99.90;;;;;;6210753;23;20166;-82
2022/01/04 04:08:08;;;;;;;27.50;7.67;;;9.00;99.90;;;;;;6210437;23;20170;-83
2022/01/04 04:10:35;;;;;;;24.53;9.43;;;9.00;99.90;;;;;;6210310;23;20171;-84
2022/01/04 04:13:03;;;;;;;33.33;9.53;;;9.00;99.90;;;;;;6210658;23;20826;-83
2022/01/04 04:15:29;;;;;;;32.27;9.23;;;9.00;99.90;;;;;;6210018;23;20475;-84
2022/01/04 04:17:58;;;;;;;27.50;8.90;;;9.00;99.90;;;;;;6210034;23;20598;-82
2022/01/04 04:20:24;;;;;;;30.43;9.23;;;9.00;99.90;;;;;;6209282;23;20201;-84
2022/01/04 04:22:51;;;;;;;26.07;8.10;;;9.00;99.90;;;;;;6210807;23;20205;-82
2022/01/04 04:25:18;;;;;;;23.30;7.67;;;9.00;99.90;;;;;;6210754;23;20697;-83
2022/01/04 04:27:46;;;;;;;28.93;9.20;;;9.00;99.90;;;;;;6210043;23;20449;-83
2022/01/04 04:30:13;;;;;;;27.17;9.83;;;9.00;99.90;;;;;;6211016;23;20177;-85
2022/01/04 04:32:40;;;;;;;27.47;8.83;;;9.00;99.90;;;;;;6210289;23;20170;-84
2022/01/04 04:35:09;;;;;;;36.03;10.00;;;9.00;99.90;;;;;;6211707;23;20174;-84
2022/01/04 04:37:36;;;;;;;22.97;9.17;;;9.00;99.90;;;;;;6210514;23;20182;-83
2022/01/04 04:40:03;;;;;;;29.10;11.37;;;9.00;99.90;;;;;;6210652;23;20206;-84
2022/01/04 04:42:30;;;;;;;29.13;10.23;;;9.00;99.90;;;;;;6210301;23;20170;-84
2022/01/04 04:44:56;;;;;;;33.70;11.70;;;9.00;99.90;;;;;;6210576;23;20225;-83
2022/01/04 04:47:23;;;;;;;26.20;11.57;;;9.00;99.90;;;;;;6210515;23;20231;-83
2022/01/04 04:49:50;;;;;;;32.40;12.73;;;9.00;99.90;;;;;;6210943;23;20181;-83
2022/01/04 04:52:18;;;;;;;31.60;12.47;;;9.00;99.90;;;;;;6211888;23;20167;-83
2022/01/04 04:54:45;;;;;;;36.57;12.33;;;9.00;99.90;;;;;;6210585;23;20181;-84
2022/01/04 04:57:12;;;;;;;35.03;12.57;;;9.00;99.90;;;;;;6210198;23;20178;-84
2022/01/04 04:59:39;;;;;;;29.33;11.83;;;9.00;99.90;;;;;;6212476;23;20170;-84
2022/01/04 05:02:07;;;;;;;31.83;11.20;;;9.00;99.90;;;;;;6212530;23;20201;-85
2022/01/04 05:04:34;;;;;;;26.80;11.63;;;9.00;99.90;;;;;;6211523;23;20223;-83
2022/01/04 05:07:01;;;;;;;31.30;9.80;;;9.00;99.90;;;;;;6211414;23;20166;-83
2022/01/04 05:09:29;;;;;;;23.13;8.43;;;9.00;99.90;;;;;;6212405;23;20178;-82
2022/01/04 05:11:56;;;;;;;28.63;8.80;;;9.00;99.90;;;;;;6211749;23;20171;-82
2022/01/04 05:14:23;;;;;;;27.33;7.63;;;9.00;99.90;;;;;;6212473;23;20178;-83
2022/01/04 05:16:50;;;;;;;33.50;7.97;;;9.00;99.90;;;;;;6212596;23;20185;-84
2022/01/04 05:19:18;;;;;;;23.97;8.63;;;9.00;99.90;;;;;;6212416;23;20185;-83
2022/01/04 05:21:44;;;;;;;19.60;8.57;;;9.00;99.90;;;;;;6211445;23;20190;-82
2022/01/04 05:24:12;;;;;;;22.40;6.93;;;9.00;99.90;;;;;;6211552;23;20198;-83
2022/01/04 05:26:40;;;;;;;27.37;7.77;;;9.00;99.90;;;;;;6212342;23;20171;-84
2022/01/04 05:29:07;;;;;;;23.33;6.80;;;9.00;99.90;;;;;;6213218;23;20173;-82
2022/01/04 05:31:34;;;;;;;29.57;8.37;;;9.00;99.90;;;;;;6211787;23;20181;-82
2022/01/04 05:34:01;;;;;;;27.97;8.83;;;9.00;99.90;;;;;;6212306;23;20170;-82
2022/01/04 05:36:27;;;;;;;33.10;9.43;;;9.10;99.90;;;;;;6211565;23;20193;-84
2022/01/04 05:38:54;;;;;;;32.37;9.27;;;9.10;99.90;;;;;;6211836;23;20166;-84
2022/01/04 05:41:21;;;;;;;30.10;9.00;;;9.10;99.90;;;;;;6211344;23;20194;-81
2022/01/04 05:43:49;;;;;;;29.40;9.57;;;9.10;99.90;;;;;;6212242;23;20166;-85
2022/01/04 05:46:16;;;;;;;30.73;9.50;;;9.10;99.90;;;;;;6212052;23;20185;-85
2022/01/04 05:48:43;;;;;;;28.73;9.37;;;9.10;99.90;;;;;;6211677;23;20583;-85
2022/01/04 05:51:10;;;;;;;32.80;9.90;;;9.10;99.90;;;;;;6212967;23;20204;-83
2022/01/04 05:53:37;;;;;;;28.47;7.10;;;9.10;99.90;;;;;;6211051;23;20174;-82
2022/01/04 05:56:04;;;;;;;24.30;6.20;;;9.10;99.90;;;;;;6212097;23;20523;-83
2022/01/04 05:58:31;;;;;;;40.10;8.33;;;9.10;99.90;;;;;;6211338;23;20174;-82
2022/01/04 06:01:00;;;;;;;32.13;8.03;;;9.10;99.90;;;;;;6211415;23;20194;-83
2022/01/04 06:03:27;;;;;;;29.10;8.53;;;9.10;99.90;;;;;;6209673;23;20469;-83
2022/01/04 06:05:55;;;;;;;33.13;9.90;;;9.10;99.90;;;;;;6210088;23;20170;-81
2022/01/04 06:08:22;;;;;;;31.83;10.13;;;9.20;99.90;;;;;;6211724;23;20201;-83
2022/01/04 06:10:51;;;;;;;28.77;9.33;;;9.20;99.90;;;;;;6211429;23;20197;-84
2022/01/04 06:16:05;;;;;;;26.90;8.23;;;9.20;99.90;;;;;;6210287;23;20165;-83
2022/01/04 06:18:32;;;;;;;37.83;8.37;;;9.20;99.90;;;;;;6211643;23;20178;-84
2022/01/04 06:20:58;;;;;;;24.77;6.97;;;9.20;99.90;;;;;;6211277;23;20204;-83
2022/01/04 06:23:25;;;;;;;34.50;8.33;;;9.30;99.90;;;;;;6210684;23;20217;-84
2022/01/04 06:25:53;;;;;;;26.73;6.83;;;9.20;99.90;;;;;;6210321;23;20174;-84
2022/01/04 06:28:21;;;;;;;32.73;7.77;;;9.30;99.90;;;;;;6208015;23;20490;-83
2022/01/04 06:30:50;;;;;;;34.43;7.60;;;9.30;99.90;;;;;;6211863;23;20170;-84
2022/01/04 06:33:20;;;;;;;27.93;6.87;;;9.40;99.90;;;;;;6210649;23;20174;-84
2022/01/04 06:35:47;;;;;;;31.73;8.77;;;9.40;99.90;;;;;;6211437;23;20163;-84
2022/01/04 06:38:14;;;;;;;21.17;5.50;;;9.30;99.90;;;;;;6211902;23;20178;-83
2022/01/04 06:40:41;;;;;;;30.67;5.17;;;9.30;99.90;;;;;;6211850;23;20201;-85
2022/01/04 06:43:10;;;;;;;24.53;4.10;;;9.30;99.90;;;;;;6210556;23;20174;-84
2022/01/04 06:45:37;;;;;;;23.40;5.07;;;9.30;99.90;;;;;;6212842;23;20818;-86
2022/01/04 06:48:05;;;;;;;20.50;5.33;;;9.30;99.90;;;;;;6213781;23;20888;-87
2022/01/04 06:50:33;;;;;;;24.33;4.60;;;9.30;99.90;;;;;;6212546;23;20174;-86
2022/01/04 06:53:00;;;;;;;34.60;5.60;;;9.30;99.90;;;;;;6213374;23;20174;-86
2022/01/04 06:55:27;;;;;;;19.30;4.30;;;9.30;99.90;;;;;;6212706;23;20167;-86
2022/01/04 06:57:54;;;;;;;26.53;4.67;;;9.30;99.90;;;;;;6213159;23;20176;-86
2022/01/04 07:00:21;;;;;;;29.10;4.70;;;9.20;99.90;;;;;;6212811;23;20457;-87
2022/01/04 07:02:48;;;;;;;23.50;5.80;;;9.30;99.90;;;;;;6212471;23;20174;-85
2022/01/04 07:05:15;;;;;;;20.50;4.20;;;9.30;99.90;;;;;;6212562;23;20189;-86
2022/01/04 07:07:43;;;;;;;17.03;4.27;;;9.30;99.90;;;;;;6212527;23;20185;-84
2022/01/04 07:10:10;;;;;;;29.90;5.10;;;9.30;99.90;;;;;;6212726;23;20166;-86
2022/01/04 07:12:37;;;;;;;23.97;4.57;;;9.30;99.90;;;;;;6212593;23;20177;-84
2022/01/04 07:15:05;;;;;;;28.60;5.07;;;9.30;99.90;;;;;;6213512;23;20185;-86
2022/01/04 07:17:31;;;;;;;25.80;4.33;;;9.30;99.90;;;;;;6212585;23;20177;-85
2022/01/04 07:19:58;;;;;;;22.70;3.93;;;9.30;99.90;;;;;;6212985;23;20176;-86
2022/01/04 07:22:25;;;;;;;26.87;5.23;;;9.30;99.90;;;;;;6212286;23;20202;-86
2022/01/04 07:24:53;;;;;;;18.33;4.50;;;9.30;99.90;;;;;;6212607;23;20216;-87
2022/01/04 07:27:20;;;;;;;23.87;5.77;;;9.30;99.90;;;;;;6213059;23;20562;-86
2022/01/04 07:29:47;;;;;;;25.67;4.00;;;9.30;99.90;;;;;;6212962;23;20174;-85
2022/01/04 07:32:14;;;;;;;22.43;4.93;;;9.30;99.90;;;;;;6212017;23;20174;-85
2022/01/04 07:34:41;;;;;;;24.13;4.73;;;9.30;99.90;;;;;;6212513;23;20801;-86
2022/01/04 07:37:08;;;;;;;27.77;5.33;;;9.30;99.90;;;;;;6211951;23;20174;-87
2022/01/04 07:39:34;;;;;;;21.77;4.87;;;9.30;99.90;;;;;;6212209;23;20178;-87
2022/01/04 07:42:03;;;;;;;15.23;3.50;;;9.30;99.90;;;;;;6212494;23;20194;-87
2022/01/04 07:44:30;;;;;;;24.53;4.80;;;9.30;99.90;;;;;;6213192;23;20228;-88
2022/01/04 07:46:57;;;;;;;28.90;5.33;;;9.20;99.90;;;;;;6211752;23;20170;-86
2022/01/04 07:49:23;;;;;;;22.23;4.57;;;9.30;99.90;;;;;;6211635;23;20363;-86
2022/01/04 07:51:50;;;;;;;18.07;4.00;;;9.20;99.90;;;;;;6212083;23;20166;-87
2022/01/04 07:54:17;;;;;;;19.73;4.20;;;9.20;99.90;;;;;;6213280;23;20185;-86
2022/01/04 07:56:44;;;;;;;20.43;4.83;;;9.20;99.90;;;;;;6212315;23;20174;-87
2022/01/04 07:59:12;;;;;;;24.47;5.30;;;9.10;99.90;;;;;;6207692;23;20170;-87
2022/01/04 08:01:39;;;;;;;23.90;6.63;;;9.10;99.90;;;;;;6210463;23;20209;-87
2022/01/04 08:04:06;;;;;;;21.87;4.57;;;9.10;99.90;;;;;;6212317;23;20201;-87
2022/01/04 08:06:33;;;;;;;25.17;4.87;;;9.10;99.90;;;;;;6211922;23;20225;-85
2022/01/04 08:09:00;;;;;;;19.23;4.70;;;9.20;99.90;;;;;;6212835;23;20181;-85
2022/01/04 08:11:27;;;;;;;18.60;3.57;;;9.20;99.90;;;;;;6211805;23;20173;-85
2022/01/04 08:13:54;;;;;;;28.07;5.37;;;9.20;99.90;;;;;;6212633;23;20185;-85
2022/01/04 08:16:22;;;;;;;24.37;4.37;;;9.20;99.90;;;;;;6212846;23;20174;-85
2022/01/04 08:18:49;;;;;;;17.63;4.37;;;9.20;99.90;;;;;;6212541;23;20173;-86
2022/01/04 08:21:16;;;;;;;17.97;3.90;;;9.20;99.90;;;;;;6212191;23;20201;-86
2022/01/04 08:23:43;;;;;;;23.60;4.30;;;9.10;99.90;;;;;;6211899;23;20201;-87
2022/01/04 08:26:10;;;;;;;20.90;4.37;;;9.20;99.90;;;;;;6213200;23;20178;-88
2022/01/04 08:28:37;;;;;;;21.43;4.47;;;9.20;99.90;;;;;;6215831;23;20174;-89
2022/01/04 08:31:05;;;;;;;23.20;3.93;;;9.20;99.90;;;;;;6215581;23;20170;-88
2022/01/04 08:33:33;;;;;;;21.17;5.80;;;9.20;99.90;;;;;;6213970;23;20256;-86
2022/01/04 08:36:00;;;;;;;18.00;3.97;;;9.20;99.90;;;;;;6214807;23;20180;-85
2022/01/04 08:38:27;;;;;;;19.17;4.50;;;9.20;99.90;;;;;;6214601;23;20213;-89
2022/01/04 08:40:53;;;;;;;19.20;3.67;;;9.20;99.90;;;;;;6214945;23;20174;-88
2022/01/04 08:43:20;;;;;;;17.47;3.40;;;9.20;99.90;;;;;;6214925;23;20425;-88
2022/01/04 08:45:47;;;;;;;15.73;4.23;;;9.20;99.90;;;;;;6214925;23;20443;-88
2022/01/04 08:48:14;;;;;;;14.47;3.73;;;9.20;99.90;;;;;;6214492;23;20165;-88
2022/01/04 08:50:44;;;;;;;16.17;4.47;;;9.20;99.90;;;;;;6212031;23;20170;-87
2022/01/04 08:53:13;;;;;;;22.67;5.17;;;9.10;99.90;;;;;;6219625;23;20166;-85
2022/01/04 08:55:39;;;;;;;17.87;3.77;;;9.10;99.90;;;;;;6216578;23;20602;-85
2022/01/04 08:58:07;;;;;;;16.90;3.27;;;9.10;99.90;;;;;;6214144;23;20170;-84
2022/01/04 09:00:36;;;;;;;23.47;4.77;;;9.10;99.90;;;;;;6213224;23;20499;-85
2022/01/04 09:03:03;;;;;;;21.60;4.53;;;9.10;99.90;;;;;;6213261;23;20300;-86
2022/01/04 09:05:31;;;;;;;15.97;4.70;;;9.20;99.90;;;;;;6213444;23;20174;-87
2022/01/04 09:07:59;;;;;;;16.37;3.20;;;9.20;99.90;;;;;;6213796;23;20635;-87
2022/01/04 09:10:26;;;;;;;10.63;2.30;;;9.10;99.90;;;;;;6213695;23;20177;-88
2022/01/04 09:12:59;;;;;;;11.73;2.53;;;9.10;99.90;;;;;;6214087;23;20182;-90
2022/01/04 09:15:47;;;;;;;4.97;1.60;;;9.00;99.90;;;;;;6213205;23;20525;-88
2022/01/04 09:20:59;;;;;;;7.77;2.40;;;8.90;99.90;;;;;;6214479;23;20248;-88
2022/01/04 09:23:28;;;;;;;9.57;2.07;;;8.80;99.90;;;;;;6213265;23;20611;-89
2022/01/04 09:25:55;;;;;;;11.47;2.03;;;8.80;99.90;;;;;;6213674;23;20170;-89
2022/01/04 09:28:23;;;;;;;10.20;2.53;;;8.80;99.90;;;;;;6214244;23;20434;-88
2022/01/04 09:30:51;;;;;;;6.87;1.40;;;8.70;99.90;;;;;;6209354;23;20450;-88
2022/01/04 09:33:18;;;;;;;7.13;1.80;;;8.60;99.90;;;;;;6212374;23;20277;-87
2022/01/04 09:35:46;;;;;;;8.43;1.80;;;8.60;99.90;;;;;;6214465;23;20457;-90
2022/01/04 09:38:13;;;;;;;9.47;1.67;;;8.60;99.90;;;;;;6212292;23;20403;-88
2022/01/04 09:40:41;;;;;;;10.97;1.53;;;8.60;99.90;;;;;;6214222;23;20174;-88
2022/01/04 09:43:09;;;;;;;9.73;1.67;;;8.50;99.90;;;;;;6187857;23;20204;-87
2022/01/04 09:45:36;;;;;;;5.47;1.17;;;8.50;99.90;;;;;;6213156;23;20185;-89
2022/01/04 09:48:04;;;;;;;5.67;1.20;;;8.40;99.90;;;;;;6214313;23;20181;-90
2022/01/04 09:50:32;;;;;;;7.07;1.60;;;8.40;99.90;;;;;;6213478;23;20559;-88
2022/01/04 09:53:01;;;;;;;5.13;1.00;;;8.20;99.90;;;;;;6214586;23;20170;-87
2022/01/04 09:55:28;;;;;;;2.33;0.80;;;8.20;99.90;;;;;;6213354;23;20170;-87
2022/01/04 09:57:56;;;;;;;10.17;1.50;;;8.10;99.90;;;;;;6214422;23;20174;-87
2022/01/04 10:00:23;;;;;;;3.90;0.63;;;8.10;99.90;;;;;;6211852;23;20181;-87
2022/01/04 10:02:51;;;;;;;5.93;1.07;;;8.00;99.90;;;;;;6213213;23;20194;-87
2022/01/04 10:05:20;;;;;;;2.90;1.33;;;8.00;99.90;;;;;;6214352;23;20203;-84
2022/01/04 10:07:49;;;;;;;5.73;1.20;;;8.00;99.90;;;;;;6213696;23;20176;-89
2022/01/04 10:10:19;;;;;;;2.43;1.00;;;7.90;99.90;;;;;;6214094;23;20174;-87
2022/01/04 10:12:51;;;;;;;3.80;0.83;;;7.90;99.90;;;;;;6213616;23;20167;-86
2022/01/04 10:15:39;;;;;;;1.67;0.80;;;7.80;99.90;;;;;;6213455;23;20182;-87
2022/01/04 10:18:21;;;;;;;3.93;0.80;;;7.80;99.90;;;;;;6213741;23;20166;-88
2022/01/04 10:20:51;;;;;;;8.47;0.70;;;7.80;99.90;;;;;;6213277;23;20524;-88
2022/01/04 10:23:20;;;;;;;4.87;1.03;;;7.80;99.90;;;;;;6213135;23;20202;-86
2022/01/04 10:25:48;;;;;;;3.77;0.90;;;7.70;99.90;;;;;;6213221;23;20166;-87
2022/01/04 10:28:29;;;;;;;6.63;1.03;;;7.70;99.90;;;;;;6213167;23;20648;-85
2022/01/04 10:31:00;;;;;;;4.20;1.70;;;7.60;99.90;;;;;;6213702;23;20166;-85
2022/01/04 10:33:31;;;;;;;4.73;1.13;;;7.70;99.90;;;;;;6211954;23;20220;-90
2022/01/04 10:35:58;;;;;;;4.13;1.00;;;7.70;99.90;;;;;;6213289;23;20573;-85
2022/01/04 10:38:27;;;;;;;5.33;1.20;;;7.70;99.90;;;;;;6213928;23;20189;-91
2022/01/04 10:40:59;;;;;;;6.17;1.43;;;7.70;99.90;;;;;;6213708;23;20162;-87
2022/01/04 10:43:29;;;;;;;5.00;1.10;;;7.60;99.90;;;;;;6214026;23;20194;-89
2022/01/04 10:45:58;;;;;;;5.17;2.53;;;7.60;99.90;;;;;;6213485;23;20196;-87
2022/01/04 10:48:27;;;;;;;7.17;1.80;;;7.60;99.90;;;;;;6212826;23;20174;-86
2022/01/04 10:50:56;;;;;;;9.40;1.30;;;7.60;99.90;;;;;;6213467;23;20174;-87
2022/01/04 10:53:28;;;;;;;7.67;2.40;;;7.60;99.90;;;;;;6213780;23;20173;-89
2022/01/04 10:55:57;;;;;;;6.67;1.30;;;7.50;99.90;;;;;;6212658;23;20173;-90
2022/01/04 10:58:34;;;;;;;4.73;1.00;;;7.50;99.90;;;;;;6212767;23;20170;-88
2022/01/04 11:01:05;;;;;;;7.57;1.37;;;7.50;99.90;;;;;;6212513;23;20531;-87
2022/01/04 11:03:33;;;;;;;7.50;1.13;;;7.50;99.90;;;;;;6207732;23;20202;-88
2022/01/04 11:06:04;;;;;;;8.63;1.23;;;7.50;99.90;;;;;;6211955;23;20713;-88
2022/01/04 11:08:31;;;;;;;6.33;1.50;;;7.50;99.90;;;;;;6213420;23;20173;-88
2022/01/04 11:10:58;;;;;;;6.07;1.17;;;7.50;99.90;;;;;;6213849;23;20240;-89
2022/01/04 11:13:25;;;;;;;9.00;1.23;;;7.40;99.90;;;;;;6213097;23;20166;-90
2022/01/04 11:15:53;;;;;;;6.90;1.23;;;7.50;99.90;;;;;;6212681;23;20234;-86
2022/01/04 11:18:21;;;;;;;5.27;1.30;;;7.50;99.90;;;;;;6213923;23;20486;-86
2022/01/04 11:20:49;;;;;;;6.87;1.60;;;7.40;99.90;;;;;;6213991;23;20170;-88
2022/01/04 11:23:16;;;;;;;4.73;1.17;;;7.30;99.90;;;;;;6214432;23;20202;-89
2022/01/04 11:25:45;;;;;;;6.53;1.30;;;7.30;99.90;;;;;;6213188;23;20174;-88
2022/01/04 11:28:15;;;;;;;5.27;1.57;;;7.30;99.90;;;;;;6212102;23;20174;-88
2022/01/04 11:31:13;;;;;;;5.40;1.20;;;7.30;99.90;;;;;;6212744;23;20178;-89
2022/01/04 11:33:53;;;;;;;6.87;1.20;;;7.40;99.90;;;;;;6214198;23;20292;-89
2022/01/04 11:36:21;;;;;;;4.10;1.00;;;7.30;99.90;;;;;;6212971;23;20166;-86
2022/01/04 11:38:49;;;;;;;5.00;1.73;;;7.20;99.90;;;;;;6211632;23;20178;-87
2022/01/04 11:41:22;;;;;;;6.17;1.30;;;7.20;99.90;;;;;;6211493;23;20174;-86
2022/01/04 11:43:50;;;;;;;4.13;0.90;;;7.20;99.90;;;;;;6210066;23;20194;-85
2022/01/04 11:46:33;;;;;;;5.40;1.37;;;7.30;99.90;;;;;;6210451;23;20166;-86
2022/01/04 11:49:11;;;;;;;6.00;1.27;;;7.30;99.90;;;;;;6211300;23;20165;-87
2022/01/04 11:51:41;;;;;;;3.33;0.80;;;7.30;99.90;;;;;;6226951;22;20216;-85
2022/01/04 11:54:21;;;;;;;3.03;0.87;;;7.30;99.90;;;;;;6242055;23;20182;-85
2022/01/04 11:56:51;;;;;;;4.77;1.10;;;7.40;99.90;;;;;;6242584;23;20177;-85
2022/01/04 11:59:24;;;;;;;3.80;0.90;;;7.40;99.90;;;;;;6240753;23;20188;-84
2022/01/04 12:01:51;;;;;;;4.17;0.90;;;7.50;99.90;;;;;;6242107;23;20177;-89
2022/01/04 12:04:53;;;;;;;3.33;0.77;;;7.50;99.90;;;;;;6220917;23;20201;-84
2022/01/04 12:07:45;;;;;;;3.73;1.00;;;7.50;99.90;;;;;;6212051;23;20164;-88
2022/01/04 12:10:37;;;;;;;6.07;1.10;;;7.50;99.90;;;;;;6213340;23;20178;-87
2022/01/04 12:13:09;;;;;;;5.50;0.90;;;7.60;99.90;;;;;;6175613;23;20174;-83
2022/01/04 12:15:50;;;;;;;1.93;0.80;;;7.60;99.90;;;;;;6186394;23;20178;-87
2022/01/04 12:18:59;;;;;;;7.30;0.90;;;7.60;99.90;;;;;;6213018;23;20166;-86
2022/01/04 12:21:33;;;;;;;3.27;0.97;;;7.60;99.90;;;;;;6193620;23;20794;-85
2022/01/04 12:24:01;;;;;;;5.33;1.30;;;7.60;99.90;;;;;;6213420;23;20424;-86
2022/01/04 12:26:32;;;;;;;3.63;1.67;;;7.70;99.90;;;;;;6211712;23;20174;-87
2022/01/04 12:29:22;;;;;;;4.27;1.20;;;7.70;99.90;;;;;;6212500;23;20177;-84
2022/01/04 12:31:51;;;;;;;7.47;1.00;;;7.70;99.90;;;;;;6212874;23;20391;-85
2022/01/04 12:34:33;;;;;;;8.03;1.57;;;7.70;99.90;;;;;;6210240;23;20174;-87
2022/01/04 12:37:03;;;;;;;8.10;1.83;;;7.70;99.90;;;;;;6211916;23;20575;-85
2022/01/04 12:39:39;;;;;;;8.23;1.47;;;7.60;99.90;;;;;;6213377;23;20166;-87
2022/01/04 12:42:07;;;;;;;7.57;1.20;;;7.60;99.90;;;;;;6213368;23;20170;-85
2022/01/04 12:44:33;;;;;;;4.70;1.03;;;7.60;99.90;;;;;;6211411;23;20445;-85
2022/01/04 12:47:01;;;;;;;8.20;2.53;;;7.60;99.90;;;;;;6213161;23;20236;-85
2022/01/04 12:49:31;;;;;;;4.63;1.00;;;7.60;99.90;;;;;;6212379;23;20586;-85
2022/01/04 12:51:59;;;;;;;6.73;1.20;;;7.60;99.90;;;;;;6212551;23;20432;-84
2022/01/04 12:54:29;;;;;;;4.40;1.10;;;7.60;99.90;;;;;;6212275;23;20166;-86
2022/01/04 12:56:58;;;;;;;8.03;1.93;;;7.60;99.90;;;;;;6212313;23;20431;-83
2022/01/04 12:59:40;;;;;;;6.07;1.20;;;7.60;99.90;;;;;;6212336;23;20174;-85
2022/01/04 13:02:15;;;;;;;3.37;1.17;;;7.60;99.90;;;;;;6212807;23;20177;-86
2022/01/04 13:04:45;;;;;;;8.93;1.73;;;7.60;99.90;;;;;;6212144;23;20244;-85